Date,TemperatureHighF,TemperatureAvgF,TemperatureLowF,DewpointHighF,DewpointAvgF,DewpointLowF,HumidityHigh,HumidityAvg,HumidityLow,PressureMaxIn,PressureMinIn,WindSpeedMaxMPH,WindSpeedAvgMPH,GustSpeedMaxMPH,PrecipitationSumIn
2013-2-1,47.3,32.2,18.1,23.4,13.8,6.6,67,48,28,30.27,30.09,32,5,33,0.00
2013-2-2,51.3,34.0,18.9,21.2,12.3,5.2,59,42,27,30.36,30.21,15,3,17,0.00
2013-2-3,52.7,34.3,21.0,18.7,9.5,1.6,52,36,23,30.30,29.97,9,2,9,0.00
2013-2-4,54.9,34.9,21.9,18.1,8.4,2.7,47,34,20,30.09,29.91,13,3,13,0.00
2013-2-5,54.9,38.8,21.9,20.7,12.7,4.3,51,35,25,30.12,29.94,17,4,17,0.00
2013-2-6,51.8,40.0,29.3,24.1,17.7,10.0,52,41,27,30.18,29.91,23,4,23,0.00
2013-2-7,48.0,33.7,21.6,21.4,11.6,4.5,57,41,28,30.24,30.09,17,3,19,0.00
2013-2-8,48.0,31.2,15.6,16.9,8.1,-0.8,54,39,24,30.12,29.80,8,2,10,0.00
2013-2-9,41.4,30.6,21.4,22.8,13.2,2.5,68,48,38,29.86,29.68,17,5,17,0.00
2013-2-10,36.9,30.8,21.4,13.6,8.1,2.8,53,38,30,30.12,29.68,26,9,28,0.00
2013-2-11,33.3,24.5,15.6,14.5,7.7,-1.1,59,49,40,30.15,30.03,11,3,11,0.00
2013-2-12,47.7,25.5,9.5,16.2,2.2,-5.8,56,38,23,30.12,30.03,13,3,15,0.00
2013-2-13,49.1,30.9,15.1,15.8,6.2,-2.0,49,36,21,30.12,29.97,23,3,23,0.00
2013-2-14,33.1,28.3,24.1,17.6,12.8,2.8,64,52,38,30.33,30.06,24,5,26,0.00
2013-2-15,40.5,29.7,19.6,18.7,10.8,4.8,68,47,23,30.33,30.24,34,6,34,0.00
2013-2-16,56.7,33.9,16.2,19.9,8.6,0.1,60,38,17,30.27,30.03,20,4,20,0.00
2013-2-17,58.3,38.1,21.9,17.4,8.8,0.9,45,31,17,30.03,29.68,35,7,35,0.00
2013-2-18,43.0,33.0,21.9,12.6,5.2,-0.8,43,31,21,30.15,29.86,26,8,26,0.00
2013-2-19,39.9,28.4,16.7,12.6,6.0,-1.8,47,39,29,30.15,29.91,10,3,11,0.00
2013-2-20,38.8,27.0,20.7,18.3,11.8,5.9,64,53,37,29.94,29.74,15,5,15,0.00
2013-2-21,35.1,25.2,18.0,16.7,11.9,6.4,67,57,43,29.97,29.83,11,3,13,0.04
2013-2-22,37.0,23.6,11.7,19.2,9.7,0.9,71,55,43,30.03,29.91,15,3,16,0.04
2013-2-23,41.2,26.7,11.3,23.0,10.7,-0.6,72,52,34,29.91,29.74,12,2,12,0.00
2013-2-24,32.0,28.0,15.8,24.3,19.3,4.5,82,70,56,30.18,29.83,26,6,28,0.00
2013-2-25,33.1,18.0,3.4,17.2,5.2,-7.4,64,57,49,30.18,29.91,8,2,8,0.00
2013-2-26,40.8,27.8,12.4,21.6,12.0,0.3,70,52,34,30.18,29.86,26,7,28,0.05
2013-2-27,37.9,27.7,16.5,13.8,7.9,0.5,52,43,35,30.30,30.15,20,5,20,0.00
2013-2-28,44.8,28.3,10.9,17.6,8.1,-2.4,57,43,28,30.27,30.21,16,4,16,0.00